createdAt,value
2023-02-07T00:00:33.472Z,7.97
2023-02-07T00:01:36.477Z,9.05
2023-02-07T00:02:43.133Z,8.70
2023-02-07T00:03:46.965Z,9.13
2023-02-07T00:04:49.882Z,9.23
2023-02-07T00:05:52.860Z,8.98
2023-02-07T00:06:56.373Z,9.45
2023-02-07T00:07:59.540Z,8.50
2023-02-07T00:09:05.848Z,9.25
2023-02-07T00:10:09.440Z,8.85
2023-02-07T00:11:17.282Z,8.25
2023-02-07T00:12:20.334Z,8.65
2023-02-07T00:13:23.934Z,9.68
2023-02-07T00:14:27.072Z,8.48
2023-02-07T00:15:30.343Z,8.32
2023-02-07T00:16:33.848Z,8.30
2023-02-07T00:17:36.884Z,8.43
2023-02-07T00:18:40.263Z,8.57
2023-02-07T00:19:43.336Z,8.20
2023-02-07T00:20:46.414Z,8.55
2023-02-07T00:21:49.498Z,8.77
2023-02-07T00:22:52.780Z,8.02
2023-02-07T00:23:56.170Z,9.25
2023-02-07T00:24:59.181Z,8.02
2023-02-07T00:26:02.903Z,8.55
2023-02-07T00:27:06.414Z,8.15
2023-02-07T00:28:09.907Z,8.75
2023-02-07T00:29:13.565Z,8.00
2023-02-07T00:30:17.019Z,8.73
2023-02-07T00:31:24.637Z,8.32
2023-02-07T00:32:32.624Z,7.87
2023-02-07T00:33:38.422Z,8.57
2023-02-07T00:34:42.282Z,8.45
2023-02-07T00:35:45.366Z,8.30
2023-02-07T00:36:48.503Z,8.07
2023-02-07T00:37:51.682Z,8.23
2023-02-07T00:38:59.889Z,7.65
2023-02-07T00:40:03.205Z,8.35
2023-02-07T00:41:13.913Z,7.93
2023-02-07T00:42:17.318Z,8.43
2023-02-07T00:43:29.337Z,8.32
2023-02-07T00:44:33.463Z,8.05
2023-02-07T00:45:36.851Z,7.15
2023-02-07T00:46:40.173Z,8.50
2023-02-07T00:47:43.217Z,8.18
2023-02-07T00:48:46.530Z,8.55
2023-02-07T00:49:49.503Z,8.18
2023-02-07T00:50:52.595Z,8.07
2023-02-07T00:51:55.623Z,8.38
2023-02-07T00:52:58.585Z,8.38
2023-02-07T00:54:02.888Z,7.75
2023-02-07T00:55:06.481Z,7.50
2023-02-07T00:56:09.731Z,8.00
2023-02-07T00:57:12.716Z,7.75
2023-02-07T00:58:16.376Z,7.25
2023-02-07T00:59:19.486Z,8.73
2023-02-07T01:00:23.480Z,8.52
2023-02-07T01:01:27.812Z,6.93
2023-02-07T01:02:31.098Z,7.47
2023-02-07T01:03:34.263Z,8.15
2023-02-07T01:04:37.659Z,6.97
2023-02-07T01:05:40.873Z,8.05
2023-02-07T01:06:44.048Z,7.25
2023-02-07T01:07:47.035Z,7.93
2023-02-07T01:08:51.029Z,7.20
2023-02-07T01:09:53.995Z,8.40
2023-02-07T01:10:57.188Z,8.07
2023-02-07T01:12:00.401Z,7.62
2023-02-07T01:13:03.653Z,7.15
2023-02-07T01:14:07.045Z,7.68
2023-02-07T01:15:10.435Z,6.95
2023-02-07T01:16:27.645Z,7.72
2023-02-07T01:17:31.390Z,7.03
2023-02-07T01:18:34.778Z,7.00
2023-02-07T01:19:37.829Z,7.75
2023-02-07T01:20:41.305Z,7.80
2023-02-07T01:21:44.372Z,7.90
2023-02-07T01:22:47.408Z,7.20
2023-02-07T01:23:50.805Z,7.53
2023-02-07T01:24:55.360Z,6.60
2023-02-07T01:25:58.250Z,7.78
2023-02-07T01:27:02.272Z,7.10
2023-02-07T01:28:05.787Z,7.37
2023-02-07T01:29:11.137Z,7.40
2023-02-07T01:30:14.638Z,8.35
2023-02-07T01:31:17.903Z,7.40
2023-02-07T01:32:20.912Z,8.15
2023-02-07T01:33:23.896Z,7.90
2023-02-07T01:34:26.878Z,7.15
2023-02-07T01:35:30.177Z,7.18
2023-02-07T01:36:33.143Z,7.22
2023-02-07T01:37:36.320Z,7.95
2023-02-07T01:38:40.737Z,7.95
2023-02-07T01:39:44.020Z,7.87
2023-02-07T01:40:47.061Z,7.10
2023-02-07T01:41:50.094Z,8.05
2023-02-07T01:42:53.547Z,7.28
2023-02-07T01:44:03.299Z,8.15
2023-02-07T01:45:29.688Z,7.20
2023-02-07T01:46:35.132Z,7.20
2023-02-07T01:47:38.880Z,6.82
2023-02-07T01:48:45.576Z,7.78
2023-02-07T01:49:51.686Z,7.12
2023-02-07T01:50:56.977Z,7.68
2023-02-07T01:52:16.704Z,7.55
2023-02-07T01:53:22.977Z,6.55
2023-02-07T01:54:33.748Z,7.10
2023-02-07T01:55:40.876Z,7.80
2023-02-07T01:56:48.974Z,8.13
2023-02-07T01:57:52.615Z,7.30
2023-02-07T01:58:56.577Z,7.22
2023-02-07T02:00:00.897Z,7.30
2023-02-07T02:01:10.314Z,6.70
2023-02-07T02:02:17.877Z,6.35
2023-02-07T02:03:20.908Z,7.15
2023-02-07T02:04:24.308Z,6.97
2023-02-07T02:05:30.509Z,7.47
2023-02-07T02:06:34.259Z,7.53
2023-02-07T02:07:38.894Z,7.20
2023-02-07T02:08:44.702Z,6.95
2023-02-07T02:09:47.753Z,7.05
2023-02-07T02:11:09.382Z,7.62
2023-02-07T02:12:25.743Z,6.70
2023-02-07T02:13:33.023Z,7.50
2023-02-07T02:14:55.217Z,6.70
2023-02-07T02:16:40.732Z,7.95
2023-02-07T02:17:43.791Z,6.18
2023-02-07T02:19:06.734Z,7.50
2023-02-07T02:20:26.881Z,6.00
2023-02-07T02:21:48.297Z,7.53
2023-02-07T02:22:57.140Z,7.03
2023-02-07T02:24:00.116Z,7.28
2023-02-07T02:25:30.755Z,7.28
2023-02-07T02:26:51.861Z,7.65
2023-02-07T02:27:54.938Z,7.28
2023-02-07T02:29:18.076Z,6.87
2023-02-07T02:30:48.682Z,7.22
2023-02-07T02:32:12.755Z,5.32
2023-02-07T02:33:33.748Z,6.72
2023-02-07T02:35:03.661Z,6.80
2023-02-07T02:36:57.276Z,7.57
2023-02-07T02:38:26.102Z,6.35
2023-02-07T02:39:34.949Z,6.62
2023-02-07T02:40:45.057Z,6.30
2023-02-07T02:42:02.491Z,7.65
2023-02-07T02:43:15.502Z,7.05
2023-02-07T02:44:29.963Z,6.03
2023-02-07T02:45:47.018Z,7.35
2023-02-07T02:46:51.717Z,6.95
2023-02-07T02:47:56.143Z,7.55
2023-02-07T02:49:01.151Z,7.43
2023-02-07T02:50:04.413Z,7.47
2023-02-07T02:51:09.012Z,7.53
2023-02-07T02:52:12.289Z,7.37
2023-02-07T02:53:16.349Z,7.85
2023-02-07T02:54:29.223Z,8.02
2023-02-07T02:55:39.063Z,7.18
2023-02-07T02:57:03.744Z,6.75
2023-02-07T02:58:20.221Z,7.28
2023-02-07T02:59:41.708Z,7.07
2023-02-07T03:01:23.865Z,7.10
2023-02-07T03:02:34.768Z,6.62
2023-02-07T03:03:55.771Z,6.68
2023-02-07T03:05:38.434Z,6.57
2023-02-07T03:06:52.990Z,6.93
2023-02-07T03:08:12.895Z,7.20
2023-02-07T03:09:37.680Z,6.57
2023-02-07T03:11:07.034Z,6.57
2023-02-07T03:12:26.129Z,7.28
2023-02-07T03:13:47.116Z,7.10
2023-02-07T03:15:05.012Z,6.57
2023-02-07T03:16:22.591Z,6.22
2023-02-07T03:17:57.274Z,6.50
2023-02-07T03:19:23.547Z,6.97
2023-02-07T03:20:33.915Z,6.10
2023-02-07T03:21:42.118Z,6.93
2023-02-07T03:22:48.769Z,6.68
2023-02-07T03:23:54.081Z,6.00
2023-02-07T03:25:01.163Z,6.78
2023-02-07T03:26:06.009Z,6.87
2023-02-07T03:27:11.741Z,6.80
2023-02-07T03:28:17.253Z,6.35
2023-02-07T03:29:21.990Z,7.10
2023-02-07T03:30:30.748Z,5.72
2023-02-07T03:31:37.546Z,6.70
2023-02-07T03:32:44.290Z,6.55
2023-02-07T03:33:50.431Z,6.60
2023-02-07T03:35:02.217Z,6.30
2023-02-07T03:36:27.903Z,6.37
2023-02-07T03:37:42.591Z,6.47
2023-02-07T03:38:46.567Z,7.32
2023-02-07T03:39:50.233Z,7.50
2023-02-07T03:40:59.344Z,7.10
2023-02-07T03:42:16.273Z,6.80
2023-02-07T03:43:22.389Z,7.03
2023-02-07T03:44:28.586Z,7.07
2023-02-07T03:45:31.871Z,6.93
2023-02-07T03:46:39.008Z,6.18
2023-02-07T03:47:42.197Z,6.60
2023-02-07T03:48:45.168Z,7.10
2023-02-07T03:49:48.536Z,5.85
2023-02-07T03:50:53.386Z,7.50
2023-02-07T03:51:56.551Z,7.25
2023-02-07T03:52:59.437Z,6.65
2023-02-07T03:54:02.438Z,7.43
2023-02-07T03:55:06.388Z,7.35
2023-02-07T03:56:09.679Z,6.87
2023-02-07T03:57:12.624Z,6.93
2023-02-07T03:58:15.967Z,7.03
2023-02-07T03:59:18.952Z,7.55
2023-02-07T04:00:22.204Z,6.32
2023-02-07T04:01:25.338Z,7.60
2023-02-07T04:02:28.392Z,6.57
2023-02-07T04:03:31.516Z,5.85
2023-02-07T04:04:34.811Z,7.03
2023-02-07T04:05:38.173Z,7.12
2023-02-07T04:06:41.307Z,6.72
2023-02-07T04:07:44.441Z,6.82
2023-02-07T04:08:52.590Z,6.60
2023-02-07T04:09:55.533Z,6.00
2023-02-07T04:11:03.620Z,6.62
2023-02-07T04:12:06.701Z,7.80
2023-02-07T04:13:09.623Z,7.15
2023-02-07T04:14:12.940Z,6.85
2023-02-07T04:15:15.783Z,6.12
2023-02-07T04:16:19.198Z,6.55
2023-02-07T04:17:22.407Z,6.57
2023-02-07T04:18:25.642Z,6.07
2023-02-07T04:19:28.718Z,7.25
2023-02-07T04:20:31.784Z,6.15
2023-02-07T04:21:35.484Z,6.80
2023-02-07T04:22:38.640Z,6.60
2023-02-07T04:23:41.558Z,6.15
2023-02-07T04:24:44.591Z,7.10
2023-02-07T04:25:47.538Z,6.00
2023-02-07T04:26:51.000Z,6.43
2023-02-07T04:27:54.031Z,6.30
2023-02-07T04:28:57.088Z,6.15
2023-02-07T04:30:00.051Z,6.12
2023-02-07T04:31:03.213Z,6.47
2023-02-07T04:32:06.326Z,6.22
2023-02-07T04:33:09.391Z,7.05
2023-02-07T04:34:13.366Z,6.53
2023-02-07T04:35:16.562Z,6.72
2023-02-07T04:36:19.753Z,7.12
2023-02-07T04:37:22.939Z,6.57
2023-02-07T04:38:26.997Z,6.43
2023-02-07T04:39:30.165Z,7.22
2023-02-07T04:40:33.039Z,6.62
2023-02-07T04:41:36.161Z,6.37
2023-02-07T04:42:39.149Z,6.35
2023-02-07T04:43:42.256Z,6.80
2023-02-07T04:44:45.254Z,5.97
2023-02-07T04:45:48.698Z,6.60
2023-02-07T04:46:52.016Z,6.85
2023-02-07T04:47:54.921Z,6.55
2023-02-07T04:48:58.007Z,6.12
2023-02-07T04:50:01.090Z,7.03
2023-02-07T04:51:04.931Z,6.55
2023-02-07T04:52:08.106Z,6.85
2023-02-07T04:53:11.203Z,6.87
2023-02-07T04:54:14.487Z,7.47
2023-02-07T04:55:17.359Z,7.20
2023-02-07T04:56:20.372Z,7.03
2023-02-07T04:57:23.650Z,6.43
2023-02-07T04:58:27.174Z,7.20
2023-02-07T04:59:30.233Z,7.30
2023-02-07T05:00:33.865Z,7.82
2023-02-07T05:01:37.296Z,6.15
2023-02-07T05:02:40.282Z,6.35
2023-02-07T05:03:43.407Z,7.28
2023-02-07T05:04:46.499Z,6.87
2023-02-07T05:05:49.563Z,6.75
2023-02-07T05:06:52.556Z,6.90
2023-02-07T05:07:55.557Z,6.10
2023-02-07T05:08:58.774Z,7.15
2023-02-07T05:10:01.986Z,7.03
2023-02-07T05:11:06.054Z,6.28
2023-02-07T05:12:09.064Z,6.50
2023-02-07T05:13:12.182Z,6.18
2023-02-07T05:14:15.242Z,6.68
2023-02-07T05:15:18.582Z,7.07
2023-02-07T05:16:21.984Z,7.32
2023-02-07T05:17:24.881Z,7.07
2023-02-07T05:18:27.967Z,6.45
2023-02-07T05:19:30.972Z,5.72
2023-02-07T05:20:34.510Z,6.85
2023-02-07T05:21:37.497Z,6.68
2023-02-07T05:22:40.466Z,6.95
2023-02-07T05:23:43.436Z,7.05
2023-02-07T05:24:46.621Z,7.07
2023-02-07T05:25:50.123Z,6.75
2023-02-07T05:26:53.199Z,7.22
2023-02-07T05:27:56.354Z,6.85
2023-02-07T05:28:59.557Z,7.30
2023-02-07T05:30:02.768Z,7.22
2023-02-07T05:31:07.931Z,7.43
2023-02-07T05:32:33.821Z,7.57
2023-02-07T05:33:36.850Z,6.90
2023-02-07T05:34:39.904Z,6.62
2023-02-07T05:35:46.606Z,6.60
2023-02-07T05:36:49.518Z,6.85
2023-02-07T05:37:52.815Z,7.28
2023-02-07T05:38:56.626Z,6.62
2023-02-07T05:40:00.046Z,5.43
2023-02-07T05:41:03.113Z,6.97
2023-02-07T05:42:06.176Z,7.47
2023-02-07T05:43:09.442Z,7.37
2023-02-07T05:44:12.712Z,5.68
2023-02-07T05:45:15.936Z,6.43
2023-02-07T05:46:19.624Z,7.03
2023-02-07T05:47:22.671Z,6.72
2023-02-07T05:48:27.034Z,6.82
2023-02-07T05:49:30.020Z,6.60
2023-02-07T05:50:33.549Z,6.05
2023-02-07T05:51:36.743Z,6.97
2023-02-07T05:52:45.387Z,7.00
2023-02-07T05:53:48.277Z,7.00
2023-02-07T05:54:51.278Z,6.97
2023-02-07T05:55:54.275Z,7.65
2023-02-07T05:56:57.473Z,7.22
2023-02-07T05:58:00.521Z,6.57
2023-02-07T05:59:04.084Z,6.75
2023-02-07T06:00:08.458Z,6.43
2023-02-07T06:01:12.530Z,6.97
2023-02-07T06:02:15.488Z,6.75
2023-02-07T06:03:18.504Z,6.62
2023-02-07T06:04:21.582Z,6.62
2023-02-07T06:05:25.099Z,7.30
2023-02-07T06:06:28.150Z,6.22
2023-02-07T06:07:31.042Z,6.28
2023-02-07T06:08:34.213Z,6.87
2023-02-07T06:09:37.545Z,6.65
2023-02-07T06:10:41.127Z,7.18
2023-02-07T06:11:44.470Z,6.62
2023-02-07T06:12:47.651Z,5.93
2023-02-07T06:13:50.702Z,6.20
2023-02-07T06:14:53.684Z,6.62
2023-02-07T06:15:56.714Z,6.85
2023-02-07T06:16:59.807Z,6.70
2023-02-07T06:18:02.714Z,7.07
2023-02-07T06:19:06.693Z,7.12
2023-02-07T06:20:10.366Z,7.15
2023-02-07T06:21:13.860Z,7.03
2023-02-07T06:22:17.277Z,7.18
2023-02-07T06:23:23.196Z,7.35
2023-02-07T06:24:26.327Z,6.85
2023-02-07T06:25:29.376Z,6.93
2023-02-07T06:26:32.385Z,6.78
2023-02-07T06:27:35.434Z,7.82
2023-02-07T06:28:38.795Z,6.10
2023-02-07T06:29:41.770Z,7.85
2023-02-07T06:30:44.879Z,6.40
2023-02-07T06:31:47.855Z,6.28
2023-02-07T06:32:50.924Z,7.70
2023-02-07T06:33:53.816Z,7.20
2023-02-07T06:34:56.933Z,6.90
2023-02-07T06:35:59.806Z,6.15
2023-02-07T06:37:02.900Z,6.75
2023-02-07T06:38:05.855Z,7.12
2023-02-07T06:39:09.613Z,7.80
2023-02-07T06:40:12.551Z,7.05
2023-02-07T06:41:16.060Z,6.75
2023-02-07T06:42:19.172Z,7.25
2023-02-07T06:43:22.379Z,6.75
2023-02-07T06:44:25.355Z,6.45
2023-02-07T06:45:28.387Z,6.35
2023-02-07T06:46:31.486Z,6.70
2023-02-07T06:47:34.490Z,7.18
2023-02-07T06:48:37.696Z,6.35
2023-02-07T06:49:41.179Z,6.97
2023-02-07T06:50:44.165Z,6.62
2023-02-07T06:51:47.155Z,6.87
2023-02-07T06:52:50.387Z,7.35
2023-02-07T06:53:53.341Z,6.85
2023-02-07T06:54:56.241Z,6.68
2023-02-07T06:55:59.225Z,7.72
2023-02-07T06:57:02.116Z,6.62
2023-02-07T06:58:07.025Z,7.72
2023-02-07T06:59:10.119Z,7.43
2023-02-07T07:00:13.658Z,6.78
2023-02-07T07:01:20.500Z,5.95
2023-02-07T07:02:23.679Z,5.95
2023-02-07T07:03:29.329Z,5.68
2023-02-07T07:04:32.522Z,7.10
2023-02-07T07:05:35.796Z,6.78
2023-02-07T07:06:39.048Z,7.53
2023-02-07T07:07:42.088Z,7.28
2023-02-07T07:08:45.101Z,7.18
2023-02-07T07:09:48.239Z,6.72
2023-02-07T07:10:51.484Z,7.15
2023-02-07T07:11:54.603Z,6.75
2023-02-07T07:12:57.691Z,7.62
2023-02-07T07:14:00.880Z,7.97
2023-02-07T07:15:04.363Z,7.87
2023-02-07T07:16:07.609Z,7.12
2023-02-07T07:17:10.840Z,7.00
2023-02-07T07:18:14.163Z,7.43
2023-02-07T07:19:17.221Z,7.65
2023-02-07T07:20:20.489Z,8.40
2023-02-07T07:21:23.578Z,8.27
2023-02-07T07:22:26.872Z,8.48
2023-02-07T07:23:29.908Z,7.70
2023-02-07T07:24:32.900Z,9.18
2023-02-07T07:25:36.197Z,9.63
2023-02-07T07:26:48.750Z,9.07
2023-02-07T07:27:53.819Z,8.40
2023-02-07T07:29:00.534Z,8.23
2023-02-07T07:30:04.571Z,8.45
2023-02-07T07:31:09.093Z,8.05
2023-02-07T07:32:19.791Z,8.85
2023-02-07T07:33:28.436Z,8.13
2023-02-07T07:34:31.535Z,8.80
2023-02-07T07:35:34.688Z,10.00
2023-02-07T07:36:37.957Z,9.57
2023-02-07T07:37:42.106Z,10.18
2023-02-07T07:38:47.493Z,9.18
2023-02-07T07:39:50.916Z,9.98
2023-02-07T07:40:53.828Z,8.98
2023-02-07T07:41:56.938Z,9.35
2023-02-07T07:43:00.114Z,9.85
2023-02-07T07:44:03.014Z,10.60
2023-02-07T07:45:07.118Z,10.85
2023-02-07T07:46:10.246Z,9.70
2023-02-07T07:47:14.077Z,10.48
2023-02-07T07:48:18.310Z,9.40
2023-02-07T07:49:21.753Z,10.27
2023-02-07T07:50:24.756Z,9.57
2023-02-07T07:51:27.759Z,10.18
2023-02-07T07:52:31.113Z,9.68
2023-02-07T07:53:34.067Z,10.02
2023-02-07T07:54:37.157Z,9.73
2023-02-07T07:55:40.225Z,9.88
2023-02-07T07:56:43.179Z,9.63
2023-02-07T07:57:46.112Z,9.27
2023-02-07T07:58:50.376Z,9.90
2023-02-07T07:59:53.348Z,9.05
2023-02-07T08:00:56.632Z,9.45
2023-02-07T08:01:59.838Z,9.82
2023-02-07T08:03:03.123Z,9.77
2023-02-07T08:04:06.482Z,9.05
2023-02-07T08:05:12.571Z,9.32
2023-02-07T08:06:16.468Z,9.27
2023-02-07T08:07:19.514Z,9.52
2023-02-07T08:08:23.060Z,9.80
2023-02-07T08:09:26.084Z,9.30
2023-02-07T08:10:29.438Z,9.80
2023-02-07T08:11:32.659Z,9.75
2023-02-07T08:12:35.571Z,9.50
2023-02-07T08:13:38.944Z,9.35
2023-02-07T08:14:41.883Z,10.32
2023-02-07T08:15:45.202Z,10.27
2023-02-07T08:16:48.459Z,9.30
2023-02-07T08:17:51.662Z,9.13
2023-02-07T08:18:56.033Z,9.05
2023-02-07T08:19:59.096Z,9.20
2023-02-07T08:21:02.331Z,9.10
2023-02-07T08:22:05.687Z,10.05
2023-02-07T08:23:08.925Z,8.65
2023-02-07T08:24:11.960Z,8.88
2023-02-07T08:25:15.689Z,9.07
2023-02-07T08:26:18.634Z,10.07
2023-02-07T08:27:21.794Z,9.75
2023-02-07T08:28:25.603Z,9.15
2023-02-07T08:29:29.109Z,9.23
2023-02-07T08:30:32.526Z,10.00
2023-02-07T08:31:35.706Z,9.90
2023-02-07T08:32:39.966Z,9.70
2023-02-07T08:33:43.014Z,9.27
2023-02-07T08:34:45.951Z,9.00
2023-02-07T08:35:50.220Z,10.18
2023-02-07T08:36:53.570Z,10.10
2023-02-07T08:37:56.893Z,8.68
2023-02-07T08:38:59.934Z,9.48
2023-02-07T08:40:05.475Z,9.93
2023-02-07T08:41:08.764Z,9.65
2023-02-07T08:42:12.041Z,9.02
2023-02-07T08:43:15.450Z,9.60
2023-02-07T08:44:18.373Z,9.25
2023-02-07T08:45:21.649Z,10.13
2023-02-07T08:46:25.248Z,9.85
2023-02-07T08:47:28.236Z,9.52
2023-02-07T08:48:31.416Z,9.15
2023-02-07T08:49:34.468Z,9.48
2023-02-07T08:50:37.932Z,10.23
2023-02-07T08:51:42.944Z,10.40
2023-02-07T08:52:46.003Z,9.73
2023-02-07T08:53:48.989Z,10.55
2023-02-07T08:54:51.902Z,10.55
2023-02-07T08:55:55.445Z,9.50
2023-02-07T08:56:58.893Z,9.43
2023-02-07T08:58:02.049Z,10.40
2023-02-07T08:59:05.231Z,10.05
2023-02-07T09:00:09.130Z,10.88
2023-02-07T09:01:13.536Z,9.45
2023-02-07T09:02:16.663Z,9.95
2023-02-07T09:03:19.895Z,10.20
2023-02-07T09:04:23.008Z,9.98
2023-02-07T09:05:26.241Z,10.45
2023-02-07T09:06:29.530Z,10.70
2023-02-07T09:07:32.909Z,11.07
2023-02-07T09:08:35.974Z,10.30
2023-02-07T09:09:39.617Z,10.43
2023-02-07T09:10:42.940Z,9.68
2023-02-07T09:11:46.199Z,9.57
2023-02-07T09:12:49.217Z,10.32
2023-02-07T09:13:52.304Z,9.18
2023-02-07T09:14:55.532Z,10.10
2023-02-07T09:15:59.237Z,10.00
2023-02-07T09:17:02.499Z,10.18
2023-02-07T09:18:05.884Z,9.75
2023-02-07T09:19:08.920Z,10.30
2023-02-07T09:20:12.596Z,10.13
2023-02-07T09:21:15.849Z,10.55
2023-02-07T09:22:18.863Z,9.60
2023-02-07T09:23:21.996Z,9.98
2023-02-07T09:24:25.020Z,9.70
2023-02-07T09:25:28.571Z,10.27
2023-02-07T09:26:33.779Z,11.00
2023-02-07T09:27:36.875Z,10.27
2023-02-07T09:28:40.480Z,9.25
2023-02-07T09:29:44.404Z,10.02
2023-02-07T09:30:48.596Z,9.40
2023-02-07T09:31:52.200Z,9.75
2023-02-07T09:32:58.408Z,9.13
2023-02-07T09:34:03.044Z,9.27
2023-02-07T09:35:08.492Z,9.95
2023-02-07T09:36:26.866Z,9.52
2023-02-07T09:37:34.889Z,9.20
2023-02-07T09:38:44.907Z,9.35
2023-02-07T09:39:48.158Z,10.20
2023-02-07T09:40:52.988Z,9.75
2023-02-07T09:42:21.967Z,9.73
2023-02-07T09:43:54.260Z,9.65
2023-02-07T09:45:31.839Z,8.95
2023-02-07T09:46:49.878Z,8.70
2023-02-07T09:48:00.647Z,10.02
2023-02-07T09:49:17.291Z,9.43
2023-02-07T09:50:28.402Z,8.90
2023-02-07T09:51:34.938Z,10.95
2023-02-07T09:52:41.639Z,9.60
2023-02-07T09:53:54.732Z,9.52
2023-02-07T09:55:01.136Z,9.23
2023-02-07T09:56:05.091Z,9.73
2023-02-07T09:57:18.166Z,9.23
2023-02-07T09:58:48.055Z,9.93
2023-02-07T09:59:59.019Z,8.65
2023-02-07T10:01:19.795Z,9.65
2023-02-07T10:02:39.251Z,8.65
2023-02-07T10:04:23.633Z,9.10
2023-02-07T10:05:35.293Z,9.77
2023-02-07T10:07:48.629Z,9.38
2023-02-07T10:08:59.788Z,8.23
2023-02-07T10:10:02.804Z,9.10
2023-02-07T10:11:34.681Z,9.23
2023-02-07T10:13:03.902Z,8.88
2023-02-07T10:14:34.188Z,9.90
2023-02-07T10:15:43.253Z,8.60
2023-02-07T10:16:58.312Z,9.38
2023-02-07T10:18:10.665Z,9.70
2023-02-07T10:19:22.360Z,8.80
2023-02-07T10:22:07.552Z,10.55
2023-02-07T10:23:33.460Z,11.80
2023-02-07T10:25:01.231Z,11.07
2023-02-07T10:26:17.677Z,11.12
2023-02-07T10:27:31.382Z,12.45
2023-02-07T10:28:53.184Z,12.63
2023-02-07T10:30:12.729Z,12.27
2023-02-07T10:31:17.814Z,13.27
2023-02-07T10:32:31.792Z,12.27
2023-02-07T10:33:39.508Z,12.23
2023-02-07T10:34:48.096Z,11.68
2023-02-07T10:35:52.426Z,12.63
2023-02-07T10:36:58.494Z,14.05
2023-02-07T10:38:05.154Z,12.25
2023-02-07T10:39:19.373Z,13.20
2023-02-07T10:40:28.315Z,12.93
2023-02-07T10:41:44.814Z,12.25
2023-02-07T10:42:56.802Z,13.27
2023-02-07T10:43:59.810Z,12.07
2023-02-07T10:45:03.199Z,12.18
2023-02-07T10:46:09.741Z,13.25
2023-02-07T10:47:16.838Z,12.95
2023-02-07T10:48:20.093Z,12.37
2023-02-07T10:49:28.796Z,12.07
2023-02-07T10:50:32.803Z,12.68
2023-02-07T10:51:44.411Z,12.98
2023-02-07T10:54:10.176Z,11.82
2023-02-07T10:55:17.534Z,12.02
2023-02-07T10:56:27.425Z,12.63
2023-02-07T10:57:31.328Z,12.18
2023-02-07T10:58:40.554Z,12.48
2023-02-07T10:59:48.223Z,12.27
2023-02-07T11:00:55.481Z,13.02
2023-02-07T11:01:58.677Z,12.18
2023-02-07T11:03:05.086Z,12.35
2023-02-07T11:04:43.334Z,11.68
2023-02-07T11:05:58.960Z,11.88
2023-02-07T11:07:05.180Z,12.20
2023-02-07T11:08:27.178Z,11.73
2023-02-07T11:10:37.895Z,12.18
2023-02-07T11:11:44.299Z,11.75
2023-02-07T11:12:55.446Z,12.02
2023-02-07T11:14:05.437Z,11.35
2023-02-07T11:15:17.660Z,12.60
2023-02-07T11:16:24.011Z,11.88
2023-02-07T11:17:27.552Z,13.00
2023-02-07T11:18:45.260Z,11.65
2023-02-07T11:19:48.753Z,11.68
2023-02-07T11:20:53.891Z,12.30
2023-02-07T11:22:21.111Z,12.23
2023-02-07T11:23:25.401Z,12.13
2023-02-07T11:24:36.035Z,11.48
2023-02-07T11:25:43.591Z,11.35
2023-02-07T11:27:15.859Z,11.80
2023-02-07T11:28:23.456Z,11.57
2023-02-07T11:29:27.046Z,11.85
2023-02-07T11:30:34.164Z,11.05
2023-02-07T11:31:38.519Z,11.25
2023-02-07T11:32:41.651Z,12.37
2023-02-07T11:33:44.965Z,11.68
2023-02-07T11:34:54.838Z,11.15
2023-02-07T11:36:26.397Z,11.93
2023-02-07T11:37:35.222Z,10.18
2023-02-07T11:38:48.225Z,11.25
2023-02-07T11:39:54.272Z,10.68
2023-02-07T11:41:07.393Z,11.25
2023-02-07T11:42:18.714Z,11.27
2023-02-07T11:43:23.453Z,12.02
2023-02-07T11:44:29.811Z,10.45
2023-02-07T11:45:37.590Z,11.20
2023-02-07T11:46:44.043Z,12.18
2023-02-07T11:47:48.990Z,11.98
2023-02-07T11:48:57.255Z,10.55
2023-02-07T11:50:07.135Z,10.70
2023-02-07T11:51:18.878Z,11.77
2023-02-07T11:52:22.670Z,11.00
2023-02-07T11:53:26.798Z,10.93
2023-02-07T11:54:31.879Z,11.68
2023-02-07T11:55:40.427Z,11.80
2023-02-07T11:56:50.338Z,11.20
2023-02-07T11:57:57.884Z,11.10
2023-02-07T11:59:11.483Z,10.60
2023-02-07T12:00:25.492Z,10.45
2023-02-07T12:01:32.926Z,11.10
2023-02-07T12:02:36.234Z,11.12
2023-02-07T12:03:58.880Z,10.88
2023-02-07T12:05:25.066Z,10.40
2023-02-07T12:06:32.441Z,11.18
2023-02-07T12:07:41.855Z,10.57
2023-02-07T12:08:46.330Z,11.93
2023-02-07T12:10:06.179Z,11.77
2023-02-07T12:11:34.362Z,10.32
2023-02-07T12:12:47.412Z,10.85
2023-02-07T12:14:00.997Z,11.93
2023-02-07T12:15:23.884Z,12.32
2023-02-07T12:17:57.572Z,10.80
2023-02-07T12:19:10.823Z,11.43
2023-02-07T12:20:26.423Z,11.27
2023-02-07T12:22:08.367Z,11.55
2023-02-07T12:23:41.626Z,10.98
2023-02-07T12:25:22.512Z,11.05
2023-02-07T12:26:33.230Z,10.85
2023-02-07T12:27:43.474Z,12.00
2023-02-07T12:29:13.314Z,10.65
2023-02-07T12:30:34.676Z,11.07
2023-02-07T12:31:57.962Z,11.88
2023-02-07T12:33:18.997Z,10.57
2023-02-07T12:34:51.165Z,10.53
2023-02-07T12:36:13.788Z,11.30
2023-02-07T12:37:28.603Z,11.98
2023-02-07T12:38:40.062Z,11.50
2023-02-07T12:40:20.022Z,11.25
2023-02-07T12:41:41.455Z,10.32
2023-02-07T12:43:02.678Z,12.45
2023-02-07T12:44:24.000Z,11.68
2023-02-07T12:45:40.031Z,11.98
2023-02-07T12:47:06.259Z,11.30
2023-02-07T12:48:52.915Z,11.60
2023-02-07T12:50:21.926Z,11.80
2023-02-07T12:51:50.175Z,10.55
2023-02-07T12:53:14.386Z,10.95
2023-02-07T12:54:30.293Z,11.55
2023-02-07T12:56:02.747Z,11.80
2023-02-07T12:57:14.122Z,11.85
2023-02-07T12:58:42.644Z,11.25
2023-02-07T13:00:21.011Z,11.20
2023-02-07T13:01:36.821Z,12.02
2023-02-07T13:03:02.314Z,12.43
2023-02-07T13:04:05.641Z,11.00
2023-02-07T13:05:28.601Z,11.68
2023-02-07T13:06:36.299Z,11.18
2023-02-07T13:07:48.274Z,10.70
2023-02-07T13:09:07.465Z,11.55
2023-02-07T13:10:29.481Z,11.48
2023-02-07T13:11:44.619Z,10.73
2023-02-07T13:12:53.368Z,11.52
2023-02-07T13:13:59.469Z,12.37
2023-02-07T13:15:20.816Z,11.12
2023-02-07T13:16:41.329Z,12.02
2023-02-07T13:18:07.914Z,11.85
2023-02-07T13:19:23.391Z,12.27
2023-02-07T13:20:35.685Z,11.95
2023-02-07T13:22:06.590Z,11.82
2023-02-07T13:23:19.783Z,12.73
2023-02-07T13:24:26.108Z,11.77
2023-02-07T13:25:37.313Z,11.48
2023-02-07T13:26:45.354Z,11.77
2023-02-07T13:27:49.976Z,11.80
2023-02-07T13:29:03.153Z,11.55
2023-02-07T13:30:06.773Z,13.35
2023-02-07T13:31:16.224Z,11.65
2023-02-07T13:32:28.403Z,11.95
2023-02-07T13:33:36.874Z,11.52
2023-02-07T13:34:48.676Z,12.35
2023-02-07T13:35:54.988Z,12.35
2023-02-07T13:37:08.127Z,11.70
2023-02-07T13:38:35.382Z,11.80
2023-02-07T13:40:00.913Z,12.85
2023-02-07T13:41:23.282Z,13.27
2023-02-07T13:42:47.696Z,12.30
2023-02-07T13:44:09.352Z,12.15
2023-02-07T13:45:13.631Z,11.77
2023-02-07T13:46:55.957Z,12.45
2023-02-07T13:49:22.412Z,11.85
2023-02-07T13:50:53.020Z,11.90
2023-02-07T13:52:06.134Z,12.75
2023-02-07T13:53:38.456Z,12.25
2023-02-07T13:55:48.923Z,11.70
2023-02-07T13:57:19.313Z,11.93
2023-02-07T13:58:53.276Z,12.75
2023-02-07T14:00:21.672Z,12.23
2023-02-07T14:01:28.202Z,11.98
2023-02-07T14:02:38.520Z,13.07
2023-02-07T14:03:42.255Z,12.32
2023-02-07T14:04:57.795Z,12.70
2023-02-07T14:06:26.027Z,12.70
2023-02-07T14:07:32.344Z,12.32
2023-02-07T14:08:38.974Z,12.88
2023-02-07T14:09:47.509Z,12.93
2023-02-07T14:10:56.732Z,12.80
2023-02-07T14:12:05.183Z,11.60
2023-02-07T14:13:28.694Z,11.02
2023-02-07T14:14:33.605Z,11.75
2023-02-07T14:15:39.248Z,10.88
2023-02-07T14:17:00.100Z,11.60
2023-02-07T14:18:05.716Z,11.10
2023-02-07T14:19:12.831Z,10.52
2023-02-07T14:20:49.797Z,11.45
2023-02-07T14:22:31.466Z,10.57
2023-02-07T14:24:04.238Z,10.95
2023-02-07T14:25:07.724Z,10.18
2023-02-07T14:26:39.985Z,11.18
2023-02-07T14:28:06.584Z,10.82
2023-02-07T14:29:53.758Z,10.63
2023-02-07T14:31:01.361Z,9.57
2023-02-07T14:32:16.389Z,11.00
2023-02-07T14:33:29.026Z,10.50
2023-02-07T14:34:53.011Z,10.80
2023-02-07T14:36:14.270Z,10.88
2023-02-07T14:37:36.752Z,10.52
2023-02-07T14:39:04.384Z,10.95
2023-02-07T14:40:19.640Z,10.68
2023-02-07T14:41:47.952Z,11.70
2023-02-07T14:43:04.264Z,10.20
2023-02-07T14:44:21.033Z,9.95
2023-02-07T14:45:25.070Z,10.23
2023-02-07T14:46:40.245Z,10.82
2023-02-07T14:47:43.565Z,11.00
2023-02-07T14:49:03.808Z,9.80
2023-02-07T14:50:07.899Z,10.07
2023-02-07T14:51:29.517Z,10.13
2023-02-07T14:52:39.194Z,10.15
2023-02-07T14:53:48.023Z,10.20
2023-02-07T14:54:55.818Z,9.95
2023-02-07T14:56:07.806Z,10.38
2023-02-07T14:57:33.569Z,9.40
2023-02-07T14:58:42.892Z,10.02
2023-02-07T15:00:21.681Z,9.75
2023-02-07T15:01:25.426Z,9.20
2023-02-07T15:02:50.509Z,9.75
2023-02-07T15:04:06.108Z,10.70
2023-02-07T15:05:33.290Z,10.80
2023-02-07T15:06:40.482Z,10.55
2023-02-07T15:07:44.328Z,10.63
2023-02-07T15:09:02.321Z,9.65
2023-02-07T15:10:35.589Z,9.55
2023-02-07T15:11:39.233Z,9.75
2023-02-07T15:12:46.450Z,10.13
2023-02-07T15:13:50.159Z,9.35